createdAt,value
2023-08-17T00:00:15.055Z,100560.80
2023-08-17T00:03:08.736Z,100552.00
2023-08-17T00:05:42.273Z,100552.40
2023-08-17T00:08:15.331Z,100566.20
2023-08-17T00:10:49.159Z,100574.80
2023-08-17T00:13:22.086Z,100569.80
2023-08-17T00:15:55.186Z,100581.20
2023-08-17T00:18:28.299Z,100583.20
2023-08-17T00:21:01.678Z,100582.60
2023-08-17T00:23:34.797Z,100584.00
2023-08-17T00:26:07.912Z,100585.60
2023-08-17T00:28:41.366Z,100588.80
2023-08-17T00:31:14.413Z,100597.80
2023-08-17T00:33:47.566Z,100591.60
2023-08-17T00:36:20.575Z,100594.40
2023-08-17T00:38:53.889Z,100597.60
2023-08-17T00:41:27.043Z,100600.60
2023-08-17T00:44:00.300Z,100608.00
2023-08-17T00:46:34.119Z,100614.40
2023-08-17T00:49:08.275Z,100627.80
2023-08-17T00:51:42.360Z,100669.80
2023-08-17T00:54:18.169Z,100712.80
2023-08-17T00:56:51.298Z,100700.40
2023-08-17T00:59:24.853Z,100716.20
2023-08-17T01:01:58.184Z,100740.80
2023-08-17T01:04:31.348Z,100725.60
2023-08-17T01:07:04.415Z,100726.00
2023-08-17T01:09:37.630Z,100717.40
2023-08-17T01:12:20.064Z,100717.40
2023-08-17T01:15:03.174Z,100725.80
2023-08-17T01:17:45.031Z,100721.00
2023-08-17T01:20:19.216Z,100723.20
2023-08-17T01:22:59.088Z,100726.60
2023-08-17T01:25:32.084Z,100708.00
2023-08-17T01:28:05.994Z,100659.60
2023-08-17T01:30:47.180Z,100632.60
2023-08-17T01:33:28.091Z,100625.60
2023-08-17T01:36:13.805Z,100619.60
2023-08-17T01:38:49.039Z,100612.60
2023-08-17T01:41:23.388Z,100598.00
2023-08-17T01:43:57.270Z,100587.80
2023-08-17T01:46:35.216Z,100581.40
2023-08-17T01:49:09.025Z,100572.80
2023-08-17T01:51:41.957Z,100577.20
2023-08-17T01:54:15.274Z,100584.20
2023-08-17T01:56:48.393Z,100577.20
2023-08-17T01:59:21.411Z,100578.80
2023-08-17T02:01:54.546Z,100595.80
2023-08-17T02:04:28.059Z,100587.60
2023-08-17T02:07:01.139Z,100577.60
2023-08-17T02:09:34.072Z,100562.60
2023-08-17T02:12:09.731Z,100564.60
2023-08-17T02:14:42.786Z,100565.00
2023-08-17T02:17:17.938Z,100559.80
2023-08-17T02:19:51.355Z,100557.40
2023-08-17T02:22:24.287Z,100541.20
2023-08-17T02:24:57.268Z,100548.80
2023-08-17T02:27:32.408Z,100544.40
2023-08-17T02:30:05.904Z,100538.20
2023-08-17T02:32:38.901Z,100535.20
2023-08-17T02:35:13.143Z,100535.20
2023-08-17T02:37:46.250Z,100524.80
2023-08-17T02:40:19.576Z,100526.60
2023-08-17T02:42:52.580Z,100533.00
2023-08-17T02:45:25.644Z,100524.60
2023-08-17T02:47:58.673Z,100525.40
2023-08-17T02:50:31.888Z,100518.20
2023-08-17T02:53:05.154Z,100524.40
2023-08-17T02:55:38.300Z,100521.40
2023-08-17T02:58:11.756Z,100527.00
2023-08-17T03:00:45.722Z,100529.20
2023-08-17T03:03:18.806Z,100537.00
2023-08-17T03:05:51.884Z,100536.80
2023-08-17T03:08:24.896Z,100538.80
2023-08-17T03:10:57.911Z,100541.00
2023-08-17T03:13:31.086Z,100532.00
2023-08-17T03:16:04.741Z,100534.40
2023-08-17T03:18:38.101Z,100535.20
2023-08-17T03:21:11.300Z,100537.60
2023-08-17T03:23:44.412Z,100538.40
2023-08-17T03:26:17.751Z,100544.00
2023-08-17T03:28:51.051Z,100540.60
2023-08-17T03:31:25.604Z,100546.80
2023-08-17T03:33:58.846Z,100548.40
2023-08-17T03:36:31.898Z,100554.40
2023-08-17T03:39:05.145Z,100561.60
2023-08-17T03:41:38.360Z,100564.80
2023-08-17T03:44:12.047Z,100566.40
2023-08-17T03:46:45.139Z,100569.20
2023-08-17T03:49:18.242Z,100573.80
2023-08-17T03:51:51.245Z,100570.20
2023-08-17T03:54:24.298Z,100568.20
2023-08-17T03:56:57.338Z,100573.40
2023-08-17T03:59:30.470Z,100579.80
2023-08-17T04:02:03.623Z,100583.20
2023-08-17T04:04:36.881Z,100593.20
2023-08-17T04:07:09.997Z,100589.60
2023-08-17T04:09:47.651Z,100584.80
2023-08-17T04:12:20.900Z,100586.40
2023-08-17T04:14:53.940Z,100587.40
2023-08-17T04:17:27.307Z,100586.00
2023-08-17T04:20:00.803Z,100592.00
2023-08-17T04:22:33.840Z,100596.40
2023-08-17T04:25:08.602Z,100600.80
2023-08-17T04:27:41.616Z,100601.80
2023-08-17T04:30:16.722Z,100609.00
2023-08-17T04:32:56.229Z,100612.40
2023-08-17T04:35:29.575Z,100618.60
2023-08-17T04:38:02.582Z,100621.20
2023-08-17T04:40:35.793Z,100624.80
2023-08-17T04:43:09.916Z,100639.20
2023-08-17T04:45:43.996Z,100652.00
2023-08-17T04:48:17.197Z,100656.80
2023-08-17T04:50:50.779Z,100658.20
2023-08-17T04:53:25.516Z,100652.40
2023-08-17T04:55:58.560Z,100653.80
2023-08-17T04:58:31.653Z,100658.00
2023-08-17T05:01:04.906Z,100657.20
2023-08-17T05:03:38.283Z,100652.20
2023-08-17T05:06:11.504Z,100655.60
2023-08-17T05:08:44.527Z,100664.60
2023-08-17T05:11:17.624Z,100679.20
2023-08-17T05:13:51.273Z,100671.00
2023-08-17T05:16:24.725Z,100670.20
2023-08-17T05:18:59.631Z,100664.20
2023-08-17T05:21:33.337Z,100652.80
2023-08-17T05:24:07.143Z,100644.20
2023-08-17T05:26:40.279Z,100640.60
2023-08-17T05:29:13.154Z,100639.40
2023-08-17T05:31:46.627Z,100647.80
2023-08-17T05:34:19.640Z,100641.40
2023-08-17T05:36:52.800Z,100638.60
2023-08-17T05:39:25.747Z,100644.00
2023-08-17T05:41:58.856Z,100655.00
2023-08-17T05:44:32.555Z,100656.40
2023-08-17T05:47:05.695Z,100656.40
2023-08-17T05:49:39.218Z,100653.80
2023-08-17T05:52:12.421Z,100648.20
2023-08-17T05:54:45.578Z,100655.80
2023-08-17T05:57:18.647Z,100653.00
2023-08-17T05:59:51.604Z,100649.60
2023-08-17T06:02:24.757Z,100645.60
2023-08-17T06:04:57.926Z,100640.80
2023-08-17T06:07:31.173Z,100633.60
2023-08-17T06:10:05.504Z,100632.20
2023-08-17T06:12:38.942Z,100630.80
2023-08-17T06:15:14.134Z,100634.60
2023-08-17T06:17:47.782Z,100639.40
2023-08-17T06:20:21.750Z,100645.80
2023-08-17T06:22:55.254Z,100644.40
2023-08-17T06:25:29.024Z,100647.00
2023-08-17T06:28:02.497Z,100646.20
2023-08-17T06:30:37.582Z,100641.60
2023-08-17T06:33:11.161Z,100640.40
2023-08-17T06:35:44.655Z,100651.00
2023-08-17T06:38:18.692Z,100652.80
2023-08-17T06:40:53.916Z,100648.80
2023-08-17T06:43:27.459Z,100652.60
2023-08-17T06:46:01.658Z,100654.80
2023-08-17T06:48:35.127Z,100657.20
2023-08-17T06:51:08.531Z,100656.80
2023-08-17T06:53:41.931Z,100664.40
2023-08-17T06:56:16.588Z,100668.80
2023-08-17T06:58:50.106Z,100670.00
2023-08-17T07:01:23.500Z,100665.60
2023-08-17T07:03:57.208Z,100664.40
2023-08-17T07:06:31.411Z,100657.40
2023-08-17T07:09:06.789Z,100655.00
2023-08-17T07:11:40.483Z,100650.80
2023-08-17T07:14:14.108Z,100650.80
2023-08-17T07:16:47.471Z,100654.40
2023-08-17T07:19:25.479Z,100655.20
2023-08-17T07:22:04.852Z,100666.40
2023-08-17T07:24:38.345Z,100672.00
2023-08-17T07:27:11.918Z,100669.60
2023-08-17T07:29:45.386Z,100665.20
2023-08-17T07:32:19.207Z,100674.20
2023-08-17T07:34:52.817Z,100672.80
2023-08-17T07:37:32.527Z,100670.20
2023-08-17T07:40:06.642Z,100665.00
2023-08-17T07:42:40.738Z,100667.40
2023-08-17T07:45:15.018Z,100667.40
2023-08-17T07:47:48.423Z,100665.60
2023-08-17T07:50:22.700Z,100665.20
2023-08-17T07:52:56.112Z,100660.00
2023-08-17T07:55:29.848Z,100657.20
2023-08-17T07:58:03.564Z,100663.20
2023-08-17T08:00:37.195Z,100661.80
2023-08-17T08:03:11.138Z,100657.80
2023-08-17T08:05:44.964Z,100652.60
2023-08-17T08:08:18.944Z,100646.80
2023-08-17T08:10:52.392Z,100646.00
2023-08-17T08:13:25.811Z,100645.00
2023-08-17T08:15:59.310Z,100645.80
2023-08-17T08:18:32.637Z,100641.60
2023-08-17T08:21:06.184Z,100644.20
2023-08-17T08:23:39.885Z,100648.00
2023-08-17T08:26:13.377Z,100649.20
2023-08-17T08:28:46.914Z,100651.40
2023-08-17T08:31:20.417Z,100656.60
2023-08-17T08:33:54.403Z,100648.60
2023-08-17T08:36:28.138Z,100650.80
2023-08-17T08:39:01.991Z,100654.80
2023-08-17T08:41:35.945Z,100654.20
2023-08-17T08:44:10.370Z,100660.00
2023-08-17T08:46:47.078Z,100657.00
2023-08-17T08:49:25.597Z,100653.80
2023-08-17T08:52:02.225Z,100648.40
2023-08-17T08:54:37.892Z,100648.20
2023-08-17T08:57:18.215Z,100647.60
2023-08-17T09:02:32.697Z,100652.40
2023-08-17T09:05:07.749Z,100660.20
2023-08-17T09:07:42.094Z,100658.60
2023-08-17T09:10:17.879Z,100654.20
2023-08-17T09:12:51.984Z,100648.60
2023-08-17T09:15:25.384Z,100642.80
2023-08-17T09:17:59.179Z,100651.00
2023-08-17T09:20:47.719Z,100654.80
2023-08-17T09:23:24.080Z,100648.20
2023-08-17T09:25:59.487Z,100654.40
2023-08-17T09:28:32.901Z,100651.40
2023-08-17T09:31:07.047Z,100650.40
2023-08-17T09:33:45.402Z,100650.40
2023-08-17T09:36:22.677Z,100645.20
2023-08-17T09:38:58.008Z,100639.60
2023-08-17T09:41:31.599Z,100637.60
2023-08-17T09:44:05.311Z,100639.00
2023-08-17T09:46:38.767Z,100640.80
2023-08-17T09:49:12.328Z,100635.40
2023-08-17T09:51:48.392Z,100634.80
2023-08-17T09:54:28.508Z,100638.20
2023-08-17T09:57:02.105Z,100634.80
2023-08-17T09:59:39.716Z,100638.00
2023-08-17T10:02:21.983Z,100630.20
2023-08-17T10:04:59.448Z,100626.20
2023-08-17T10:07:36.607Z,100628.80
2023-08-17T10:10:11.980Z,100624.80
2023-08-17T10:12:51.103Z,100624.00
2023-08-17T10:15:24.495Z,100620.20
2023-08-17T10:18:05.006Z,100623.40
2023-08-17T10:20:43.605Z,100619.80
2023-08-17T10:23:20.246Z,100623.60
2023-08-17T10:25:54.547Z,100620.60
2023-08-17T10:28:28.913Z,100616.80
2023-08-17T10:31:02.581Z,100616.00
2023-08-17T10:33:35.993Z,100614.60
2023-08-17T10:36:10.366Z,100621.00
2023-08-17T10:38:43.753Z,100620.60
2023-08-17T10:41:18.984Z,100620.60
2023-08-17T10:44:02.666Z,100618.80
2023-08-17T10:46:40.983Z,100615.00
2023-08-17T10:49:30.650Z,100614.20
2023-08-17T10:52:11.286Z,100607.80
2023-08-17T10:54:45.987Z,100610.80
2023-08-17T10:57:39.916Z,100608.00
2023-08-17T11:00:28.408Z,100606.80
2023-08-17T11:03:03.511Z,100611.80
2023-08-17T11:05:48.364Z,100610.00
2023-08-17T11:08:30.794Z,100604.60
2023-08-17T11:11:07.356Z,100606.40
2023-08-17T11:13:42.961Z,100601.00
2023-08-17T11:16:19.237Z,100601.00
2023-08-17T11:18:52.992Z,100604.00
2023-08-17T11:21:26.418Z,100606.80
2023-08-17T11:24:01.848Z,100607.80
2023-08-17T11:26:36.341Z,100609.80
2023-08-17T11:29:10.311Z,100609.00
2023-08-17T11:34:24.185Z,100609.40
2023-08-17T11:36:59.269Z,100608.60
2023-08-17T11:39:40.112Z,100609.00
2023-08-17T11:42:20.058Z,100605.60
2023-08-17T11:44:54.472Z,100604.20
2023-08-17T11:47:32.586Z,100608.40
2023-08-17T11:50:19.921Z,100611.00
2023-08-17T11:52:54.813Z,100613.00
2023-08-17T11:55:28.207Z,100612.40
2023-08-17T11:58:01.492Z,100612.80
2023-08-17T12:00:39.700Z,100614.60
2023-08-17T12:03:15.414Z,100618.00
2023-08-17T12:05:50.181Z,100618.00
2023-08-17T12:08:23.516Z,100616.20
2023-08-17T12:10:57.538Z,100617.80
2023-08-17T12:13:38.257Z,100614.40
2023-08-17T12:16:19.448Z,100616.60
2023-08-17T12:18:54.574Z,100615.20
2023-08-17T12:21:30.124Z,100619.40
2023-08-17T12:24:06.261Z,100616.00
2023-08-17T12:26:43.324Z,100611.80
2023-08-17T12:29:16.791Z,100610.00
2023-08-17T12:31:50.472Z,100604.80
2023-08-17T12:34:23.838Z,100603.80
2023-08-17T12:36:57.186Z,100602.40
2023-08-17T12:39:30.897Z,100599.00
2023-08-17T12:42:04.588Z,100595.00
2023-08-17T12:44:38.166Z,100589.40
2023-08-17T12:47:11.697Z,100578.00
2023-08-17T12:49:45.020Z,100574.80
2023-08-17T12:52:18.316Z,100576.00
2023-08-17T12:54:52.919Z,100567.00
2023-08-17T12:57:28.067Z,100562.20
2023-08-17T13:00:01.369Z,100558.40
2023-08-17T13:02:35.045Z,100552.00
2023-08-17T13:05:09.119Z,100543.00
2023-08-17T13:07:42.414Z,100538.20
2023-08-17T13:10:15.893Z,100535.20
2023-08-17T13:12:49.612Z,100531.60
2023-08-17T13:15:23.165Z,100536.60
2023-08-17T13:17:56.573Z,100537.40
2023-08-17T13:20:29.972Z,100543.60
2023-08-17T13:23:03.363Z,100543.60
2023-08-17T13:25:36.914Z,100540.20
2023-08-17T13:28:10.773Z,100538.00
2023-08-17T13:30:44.787Z,100539.80
2023-08-17T13:33:19.078Z,100545.00
2023-08-17T13:35:54.050Z,100542.40
2023-08-17T13:38:27.510Z,100545.00
2023-08-17T13:41:01.020Z,100546.80
2023-08-17T13:43:34.437Z,100555.20
2023-08-17T13:46:08.615Z,100555.80
2023-08-17T13:48:42.829Z,100559.00
2023-08-17T13:51:16.189Z,100559.60
2023-08-17T13:53:49.523Z,100564.20
2023-08-17T13:56:23.060Z,100566.20
2023-08-17T13:58:56.340Z,100565.40
2023-08-17T14:01:29.908Z,100567.40
2023-08-17T14:04:05.128Z,100567.80
2023-08-17T14:06:38.589Z,100573.00
2023-08-17T14:09:11.993Z,100570.80
2023-08-17T14:11:45.352Z,100571.00
2023-08-17T14:14:19.150Z,100573.00
2023-08-17T14:16:52.416Z,100575.80
2023-08-17T14:19:25.901Z,100573.00
2023-08-17T14:22:02.234Z,100573.60
2023-08-17T14:24:35.621Z,100571.80
2023-08-17T14:27:09.392Z,100571.00
2023-08-17T14:29:47.971Z,100567.40
2023-08-17T14:32:21.863Z,100564.20
2023-08-17T14:34:55.122Z,100568.00
2023-08-17T14:37:28.831Z,100572.40
2023-08-17T14:40:02.395Z,100568.60
2023-08-17T14:42:35.806Z,100562.20
2023-08-17T14:45:11.083Z,100559.60
2023-08-17T14:47:44.463Z,100560.80
2023-08-17T14:50:17.867Z,100564.80
2023-08-17T14:52:51.172Z,100567.80
2023-08-17T14:55:24.911Z,100571.20
2023-08-17T14:58:03.172Z,100584.00
2023-08-17T15:00:37.508Z,100597.80
2023-08-17T15:03:11.792Z,100644.60
2023-08-17T15:05:45.243Z,100653.00
2023-08-17T15:08:18.852Z,100661.60
2023-08-17T15:10:53.161Z,100663.00
2023-08-17T15:13:26.572Z,100681.20
2023-08-17T15:16:00.626Z,100681.00
2023-08-17T15:18:34.041Z,100677.00
2023-08-17T15:21:07.454Z,100655.80
2023-08-17T15:23:41.255Z,100653.60
2023-08-17T15:26:14.766Z,100665.80
2023-08-17T15:28:48.212Z,100652.80
2023-08-17T15:31:21.707Z,100654.00
2023-08-17T15:33:54.851Z,100643.80
2023-08-17T15:36:28.073Z,100647.40
2023-08-17T15:39:01.150Z,100645.20
2023-08-17T15:41:34.656Z,100640.20
2023-08-17T15:44:08.738Z,100642.00
2023-08-17T15:46:42.115Z,100637.60
2023-08-17T15:49:15.277Z,100641.20
2023-08-17T15:51:48.629Z,100645.40
2023-08-17T15:54:33.591Z,100644.60
2023-08-17T15:57:09.275Z,100633.80
2023-08-17T15:59:42.542Z,100622.00
2023-08-17T16:02:15.836Z,100613.20
2023-08-17T16:04:48.986Z,100607.20
2023-08-17T16:07:22.475Z,100598.40
2023-08-17T16:09:55.593Z,100600.00
2023-08-17T16:12:30.958Z,100602.40
2023-08-17T16:15:04.264Z,100609.40
2023-08-17T16:17:37.525Z,100605.60
2023-08-17T16:20:13.674Z,100605.80
2023-08-17T16:22:47.112Z,100607.00
2023-08-17T16:25:20.521Z,100605.20
2023-08-17T16:27:53.692Z,100602.40
2023-08-17T16:30:27.599Z,100594.40
2023-08-17T16:33:00.805Z,100596.00
2023-08-17T16:35:34.037Z,100590.00
2023-08-17T16:38:07.934Z,100581.40
2023-08-17T16:40:40.878Z,100575.60
2023-08-17T16:43:13.986Z,100568.00
2023-08-17T16:45:46.985Z,100569.40
2023-08-17T16:48:24.704Z,100560.20
2023-08-17T16:50:58.111Z,100559.60
2023-08-17T16:53:31.406Z,100559.60
2023-08-17T16:56:05.264Z,100553.60
2023-08-17T16:58:38.401Z,100553.00
2023-08-17T17:01:15.100Z,100544.60
2023-08-17T17:03:48.807Z,100543.20
2023-08-17T17:06:22.318Z,100536.40
2023-08-17T17:08:55.752Z,100535.00
2023-08-17T17:11:29.280Z,100538.20
2023-08-17T17:14:02.324Z,100548.00
2023-08-17T17:16:35.319Z,100561.80
2023-08-17T17:19:08.595Z,100557.40
2023-08-17T17:21:42.754Z,100560.40
2023-08-17T17:24:15.875Z,100554.80
2023-08-17T17:26:56.948Z,100551.00
2023-08-17T17:29:30.050Z,100547.80
2023-08-17T17:32:03.197Z,100549.80
2023-08-17T17:34:36.334Z,100547.00
2023-08-17T17:37:09.561Z,100537.40
2023-08-17T17:39:42.706Z,100528.00
2023-08-17T17:42:15.790Z,100531.80
2023-08-17T17:44:48.997Z,100528.60
2023-08-17T17:47:22.175Z,100526.00
2023-08-17T17:49:55.323Z,100524.20
2023-08-17T17:52:29.867Z,100518.40
2023-08-17T17:55:03.853Z,100527.20
2023-08-17T17:57:38.452Z,100529.00
2023-08-17T18:00:14.893Z,100539.80
2023-08-17T18:02:49.075Z,100545.00
2023-08-17T18:05:24.693Z,100551.20
2023-08-17T18:07:59.477Z,100547.40
2023-08-17T18:10:35.009Z,100555.00
2023-08-17T18:13:08.348Z,100551.20
2023-08-17T18:15:43.177Z,100549.20
2023-08-17T18:18:16.286Z,100552.80
2023-08-17T18:20:49.337Z,100551.20
2023-08-17T18:23:22.649Z,100554.80
2023-08-17T18:25:56.182Z,100559.20
2023-08-17T18:28:29.251Z,100557.00
2023-08-17T18:31:02.344Z,100560.20
2023-08-17T18:33:35.517Z,100565.80
2023-08-17T18:36:09.177Z,100557.20
2023-08-17T18:38:42.254Z,100565.20
2023-08-17T18:41:15.947Z,100561.60
2023-08-17T18:43:49.066Z,100553.60
2023-08-17T18:46:22.729Z,100556.40
2023-08-17T18:48:55.827Z,100558.20
2023-08-17T18:51:28.976Z,100547.80
2023-08-17T18:54:02.316Z,100556.80
2023-08-17T18:56:35.440Z,100561.00
2023-08-17T18:59:08.849Z,100560.80
2023-08-17T19:01:42.198Z,100563.40
2023-08-17T19:04:15.386Z,100563.60
2023-08-17T19:06:48.629Z,100563.60
2023-08-17T19:09:21.719Z,100569.00
2023-08-17T19:11:54.719Z,100571.00
2023-08-17T19:14:27.804Z,100566.00
2023-08-17T19:17:01.050Z,100572.80
2023-08-17T19:19:34.495Z,100576.00
2023-08-17T19:22:07.840Z,100574.00
2023-08-17T19:24:44.034Z,100573.00
2023-08-17T19:27:17.222Z,100572.80
2023-08-17T19:29:50.370Z,100572.20
2023-08-17T19:32:23.406Z,100571.20
2023-08-17T19:34:56.531Z,100570.40
2023-08-17T19:37:32.890Z,100563.00
2023-08-17T19:40:07.892Z,100562.60
2023-08-17T19:42:41.038Z,100561.40
2023-08-17T19:45:15.308Z,100554.00
2023-08-17T19:47:48.466Z,100548.40
2023-08-17T19:50:21.820Z,100553.80
2023-08-17T19:52:54.844Z,100556.40
2023-08-17T19:55:28.005Z,100561.20
2023-08-17T19:58:01.051Z,100565.40
2023-08-17T20:00:34.275Z,100566.60
2023-08-17T20:03:07.599Z,100560.60
2023-08-17T20:05:41.313Z,100550.60
2023-08-17T20:08:14.562Z,100552.00
2023-08-17T20:10:47.687Z,100541.80
2023-08-17T20:13:20.912Z,100542.20
2023-08-17T20:15:58.880Z,100538.20
2023-08-17T20:18:31.935Z,100538.00
2023-08-17T20:21:06.371Z,100539.00
2023-08-17T20:23:41.434Z,100541.80
2023-08-17T20:26:14.763Z,100538.80
2023-08-17T20:28:47.783Z,100539.00
2023-08-17T20:31:20.831Z,100534.00
2023-08-17T20:33:55.521Z,100536.20
2023-08-17T20:36:28.586Z,100536.60
2023-08-17T20:39:09.496Z,100539.20
2023-08-17T20:41:42.782Z,100542.00
2023-08-17T20:44:16.488Z,100546.40
2023-08-17T20:46:49.807Z,100543.20
2023-08-17T20:49:22.730Z,100539.20
2023-08-17T20:51:55.832Z,100529.80
2023-08-17T20:54:28.734Z,100530.20
2023-08-17T20:57:02.060Z,100528.00
2023-08-17T20:59:35.380Z,100522.00
2023-08-17T21:02:08.587Z,100529.60
2023-08-17T21:04:41.817Z,100533.20
2023-08-17T21:07:15.303Z,100538.00
2023-08-17T21:09:48.333Z,100530.40
2023-08-17T21:12:21.518Z,100528.20
2023-08-17T21:14:55.682Z,100529.60
2023-08-17T21:17:30.155Z,100534.80
2023-08-17T21:20:04.241Z,100561.60
2023-08-17T21:22:39.801Z,100572.80
2023-08-17T21:25:14.227Z,100566.40
2023-08-17T21:27:47.755Z,100559.60
2023-08-17T21:30:22.413Z,100549.60
2023-08-17T21:32:55.789Z,100546.20
2023-08-17T21:35:29.091Z,100568.80
2023-08-17T21:38:02.360Z,100563.00
2023-08-17T21:40:35.715Z,100554.20
2023-08-17T21:43:09.010Z,100544.00
2023-08-17T21:45:42.437Z,100545.40
2023-08-17T21:48:15.539Z,100540.40
2023-08-17T21:50:48.551Z,100536.80
2023-08-17T21:53:24.034Z,100536.40
2023-08-17T21:55:57.504Z,100547.20
2023-08-17T21:58:30.603Z,100551.20
2023-08-17T22:01:03.762Z,100556.60
2023-08-17T22:03:36.827Z,100550.40
2023-08-17T22:06:10.504Z,100558.00
2023-08-17T22:08:43.771Z,100556.00
2023-08-17T22:11:16.884Z,100563.40
2023-08-17T22:13:50.164Z,100570.60
2023-08-17T22:16:23.230Z,100571.80
2023-08-17T22:18:59.659Z,100574.00
2023-08-17T22:21:33.109Z,100572.60
2023-08-17T22:24:06.655Z,100560.40
2023-08-17T22:26:39.720Z,100553.80
2023-08-17T22:29:12.831Z,100557.00
2023-08-17T22:31:45.881Z,100555.40
2023-08-17T22:34:18.892Z,100549.20
2023-08-17T22:36:51.981Z,100547.00
2023-08-17T22:39:25.139Z,100553.80
2023-08-17T22:41:58.475Z,100560.20
2023-08-17T22:44:31.787Z,100561.80
2023-08-17T22:47:05.714Z,100556.20
2023-08-17T22:49:38.840Z,100562.20
2023-08-17T22:52:11.920Z,100563.80
2023-08-17T22:54:45.107Z,100570.40
2023-08-17T22:57:18.166Z,100580.80
2023-08-17T22:59:51.238Z,100581.20
2023-08-17T23:02:24.418Z,100587.60
2023-08-17T23:04:57.536Z,100586.00
2023-08-17T23:07:30.812Z,100587.40
2023-08-17T23:10:04.181Z,100593.40
2023-08-17T23:12:37.254Z,100602.20
2023-08-17T23:15:12.017Z,100610.60
2023-08-17T23:17:45.691Z,100616.80
2023-08-17T23:20:19.040Z,100616.20
2023-08-17T23:22:52.210Z,100619.40
2023-08-17T23:25:26.579Z,100629.00
2023-08-17T23:27:59.666Z,100621.80
2023-08-17T23:30:32.850Z,100629.40
2023-08-17T23:33:06.735Z,100621.00
2023-08-17T23:35:41.089Z,100623.20
2023-08-17T23:38:14.664Z,100612.80
2023-08-17T23:40:47.866Z,100607.00
2023-08-17T23:43:20.976Z,100599.00
2023-08-17T23:45:53.994Z,100597.60
2023-08-17T23:48:27.129Z,100590.00
2023-08-17T23:51:00.563Z,100590.80
2023-08-17T23:53:33.735Z,100583.00
2023-08-17T23:56:06.956Z,100573.80
2023-08-17T23:58:40.001Z,100570.60
